Columbia Airport

Jump to: basic info | weather | frequencies | runways | comments

Related pages: nearby airports | nearby navaids | notams | map

Basic information (top)

Codes: KO22 O22
Location: lon 38.030399, lat -120.415001, elev 2,118 ft / 646 m msl
Status: small_airport
Scheduled airline service: no
Links: Wikipedia Mobile

Weather (top)

Current conditions (rec'd 2014/07/24 09:15Z):

KO22 240915Z AUTO 05003KT 10SM CLR 15/08 A3004 RMK AO1

Airport forecast for Castle Airport 40nm (74km) S (rec'd 2014/07/24 06:25Z):

TAF KMER 240520Z 2406/2506 36009KT P6SM SKC 
     FM242000 33008KT P6SM SKC

Frequencies (top)

Verify before use: may be inaccurate or out of date.

AWOS: 124.65 MHz (AWOS 3)
CNTR: 126.85 MHz (OAKLAND CNTR)
UNIC: 122.975 MHz (CTAF/UNICOM)

Runways (top)

11/29: 2,600 x 100 ft (792 x 30 m) — grass — not lighted

17/35: 4,670 x 75 ft (1,423 x 23 m) — paved — lighted — threshold 17 displaced 595 ft (181 m) — threshold 35 displaced 589 ft (180 m)

H1/H1: 100 x 100 ft (30 x 30 m) — other (ASPH) — not lighted

H2/H2: 78 x 78 ft (24 x 24 m) — other (ASPH) — not lighted

Latest comments (top)

Great place to take a date: The town of Columbia is a restore Gold ... [read]

More... (top)

See also NOTAMs and nearby airports and navaids, or visit the Columbia Airport page at the main OurAirports website..